»·PEaware :: DAL604 KSNA-KSBA

DAL604 :: KSNA-KSBA

FLIGHT INFORMATION

Flight Status: Arrived
Operator:
Delta Air Lines
More flights by this operator :: More flights under this callsign
Pilot: Ricardo M. (29263)
Aircraft: BOEING 737-300
(B733)
More flights by this aircraft type
Origin: KSNA John Wayne-Orange Co
United States
Destination: KSBA Santa Barbara Mun
United States
More flights between these airports :: More routes between these airports
Route: +SXC V208 VTU VTU282R KWANG
File this flight plan on PilotEdge
Remarks: CSTP23
Altitude:
(Current/Filed)
10,000ft
Speed:
(Current/Filed)
250kts
Departed: 27-Oct-20 12:35 PM
Arrived: 27-Oct-20 01:10 PM
Distance/Time
Traveled:
108nm/0:34
Distance/Time
To Go:
Arrived

Flight Plot

Page will automatically refresh every two minutes.


Map Options




Map Legend


Flown Route
Filed Route
Departure Airport
Arrival Airport
Navaid (VOR, NDB)
Fix

Horizontal Profiles

Position Reports

Time Latitude Longitude Heading Altitude Ground
Speed
27-Oct-20 12:14 33.675039 -117.865098 116 63ft 0kts
27-Oct-20 12:15 33.675039 -117.865098 116 63ft 0kts
27-Oct-20 12:16 33.675039 -117.865098 116 63ft 0kts
27-Oct-20 12:17 33.675039 -117.865098 116 63ft 0kts
27-Oct-20 12:18 33.675039 -117.865098 116 63ft 0kts
27-Oct-20 12:19 33.675039 -117.865098 116 63ft 0kts
27-Oct-20 12:20 33.675039 -117.865098 116 63ft 0kts
27-Oct-20 12:21 33.675039 -117.865098 116 63ft 0kts
27-Oct-20 12:22 33.675039 -117.865098 117 63ft 0kts
27-Oct-20 12:23 33.675039 -117.865098 117 63ft 0kts
27-Oct-20 12:24 33.675039 -117.865098 117 63ft 0kts
27-Oct-20 12:25 33.675249 -117.865589 117 63ft 0kts
27-Oct-20 12:26 33.675398 -117.865901 109 63ft 1kts
27-Oct-20 12:27 33.675399 -117.865862 81 63ft 0kts
27-Oct-20 12:28 33.675399 -117.865862 81 63ft 0kts
27-Oct-20 12:29 33.675555 -117.865618 39 63ft 5kts
27-Oct-20 12:31 33.678867 -117.863459 26 63ft 21kts
27-Oct-20 12:32 33.680584 -117.863018 302 63ft 0kts
27-Oct-20 12:33 33.680589 -117.863029 302 63ft 1kts
27-Oct-20 12:34 33.681076 -117.865372 212 63ft 11kts
27-Oct-20 12:35 33.646368 -117.888133 200 2010ft 202kts
27-Oct-20 12:36 33.580629 -117.903226 186 4857ft 259kts
27-Oct-20 12:37 33.509822 -117.918934 202 5000ft 261kts
27-Oct-20 12:38 33.440560 -117.970483 212 8352ft 312kts
27-Oct-20 12:39 33.364561 -118.025400 211 10036ft 321kts
27-Oct-20 12:40 33.291753 -118.084639 239 10044ft 313kts
27-Oct-20 12:41 33.302095 -118.178506 293 10075ft 294kts
27-Oct-20 12:42 33.329653 -118.270702 295 10067ft 293kts
27-Oct-20 12:43 33.357648 -118.362312 295 10073ft 293kts
27-Oct-20 12:44 33.392173 -118.449524 307 10073ft 288kts
27-Oct-20 12:45 33.439030 -118.525674 323 10073ft 281kts
27-Oct-20 12:46 33.494672 -118.591946 316 10073ft 284kts
27-Oct-20 12:46 33.537601 -118.652397 314 10070ft 285kts
27-Oct-20 12:48 33.596575 -118.737610 314 10073ft 285kts
27-Oct-20 12:48 33.638943 -118.798648 314 10064ft 287kts
27-Oct-20 12:50 33.698733 -118.884890 314 10044ft 286kts
27-Oct-20 12:50 33.740924 -118.945878 314 10033ft 284kts
27-Oct-20 12:51 33.791103 -119.018104 318 10023ft 279kts
27-Oct-20 12:52 33.862904 -119.034735 0 10030ft 269kts
27-Oct-20 12:53 33.937556 -119.031452 359 10025ft 270kts
27-Oct-20 12:54 34.012417 -119.038537 355 10029ft 269kts
27-Oct-20 12:55 34.087090 -119.046663 352 10025ft 270kts
27-Oct-20 12:56 34.134857 -119.114255 305 10036ft 280kts
27-Oct-20 12:57 34.174729 -119.194304 302 9204ft 275kts
27-Oct-20 12:58 34.209889 -119.274351 299 7632ft 265kts
27-Oct-20 12:59 34.242644 -119.352582 298 5883ft 259kts
27-Oct-20 13:00 34.274632 -119.429450 297 4192ft 252kts
27-Oct-20 13:01 34.304081 -119.499742 298 4070ft 205kts
27-Oct-20 13:02 34.326885 -119.562727 295 3327ft 207kts
27-Oct-20 13:03 34.351153 -119.625413 296 2120ft 194kts
27-Oct-20 13:04 34.371857 -119.678725 296 2156ft 163kts
27-Oct-20 13:05 34.391716 -119.726688 308 2114ft 158kts
27-Oct-20 13:06 34.416165 -119.763022 311 1772ft 132kts
27-Oct-20 13:07 34.428430 -119.804072 269 541ft 132kts
27-Oct-20 13:08 34.427680 -119.844430 269 16ft 85kts
27-Oct-20 13:09 34.426802 -119.851530 159 15ft 0kts
27-Oct-20 13:10 34.426449 -119.849653 88 15ft 14kts
27-Oct-20 13:11 34.426604 -119.842258 89 16ft 15kts
27-Oct-20 13:12 34.426071 -119.838105 141 16ft 7kts
27-Oct-20 13:13 34.425991 -119.837431 90 15ft 0kts
27-Oct-20 13:14 34.425991 -119.837431 90 15ft 0kts

Navigation Log

Ident Type
Flight plan parsing failed, navigation log unavailable